createdAt,value
2019-04-29T00:02:34.047Z,9.80
2019-04-29T00:10:51.476Z,10.97
2019-04-29T00:19:17.121Z,7.30
2019-04-29T00:27:34.521Z,8.23
2019-04-29T00:35:52.034Z,9.03
2019-04-29T00:44:11.857Z,8.80
2019-04-29T00:52:29.317Z,7.37
2019-04-29T01:00:47.008Z,11.83
2019-04-29T01:09:08.066Z,8.57
2019-04-29T01:17:25.994Z,7.40
2019-04-29T01:25:45.169Z,10.97
2019-04-29T01:34:14.381Z,10.73
2019-04-29T01:42:35.677Z,13.03
2019-04-29T01:50:53.104Z,13.80
2019-04-29T01:59:10.537Z,19.57
2019-04-29T02:07:28.040Z,15.67
2019-04-29T02:15:45.649Z,20.03
2019-04-29T02:24:10.774Z,14.57
2019-04-29T02:32:28.203Z,17.57
2019-04-29T02:40:52.645Z,19.40
2019-04-29T02:49:10.174Z,18.57
2019-04-29T02:57:35.834Z,19.87
2019-04-29T03:05:58.007Z,18.60
2019-04-29T03:14:15.501Z,19.47
2019-04-29T03:22:32.982Z,27.73
2019-04-29T03:30:50.500Z,18.70
2019-04-29T03:39:08.187Z,19.80
2019-04-29T03:47:25.684Z,22.10
2019-04-29T03:55:43.101Z,25.57
2019-04-29T04:04:14.951Z,26.57
2019-04-29T04:12:32.745Z,24.77
2019-04-29T04:20:50.163Z,33.20
2019-04-29T04:29:07.605Z,24.77
2019-04-29T04:37:25.140Z,30.33
2019-04-29T04:45:42.761Z,26.10
2019-04-29T04:54:00.188Z,29.67
2019-04-29T05:02:17.608Z,27.00
2019-04-29T05:10:35.166Z,35.80
2019-04-29T05:18:52.587Z,32.03
2019-04-29T05:27:10.031Z,33.00
2019-04-29T05:35:33.909Z,32.70
2019-04-29T05:44:15.004Z,36.57
2019-04-29T05:52:51.677Z,34.40
2019-04-29T06:01:33.729Z,34.90
2019-04-29T06:09:51.266Z,38.30
2019-04-29T06:18:08.729Z,30.17
2019-04-29T06:26:26.270Z,33.30
2019-04-29T06:34:43.708Z,30.60
2019-04-29T06:43:01.168Z,31.83
2019-04-29T06:51:18.655Z,23.67
2019-04-29T06:59:36.195Z,25.70
2019-04-29T07:07:53.696Z,26.60
2019-04-29T07:16:11.427Z,27.33
2019-04-29T07:24:28.878Z,26.62
2019-04-29T07:32:47.065Z,31.53
2019-04-29T07:41:05.505Z,32.63
2019-04-29T07:49:23.465Z,31.00
2019-04-29T07:57:41.307Z,32.77
2019-04-29T08:05:58.844Z,22.90
2019-04-29T08:14:30.848Z,25.47
2019-04-29T08:22:48.293Z,29.50
2019-04-29T08:31:05.761Z,29.77
2019-04-29T08:39:25.175Z,29.33
2019-04-29T08:57:01.874Z,39.60
2019-04-29T09:05:01.221Z,33.57
2019-04-29T09:13:18.703Z,30.63
2019-04-29T09:21:36.140Z,30.63
2019-04-29T09:29:54.227Z,32.47
2019-04-29T09:38:12.881Z,30.23
2019-04-29T09:46:34.607Z,25.43
2019-04-29T09:54:54.308Z,33.33
2019-04-29T10:03:49.226Z,30.40
2019-04-29T10:12:06.907Z,41.33
2019-04-29T10:20:46.664Z,30.83
2019-04-29T10:29:08.245Z,40.57
2019-04-29T10:37:31.366Z,25.90
2019-04-29T10:46:16.458Z,24.97
2019-04-29T10:54:35.273Z,23.80
2019-04-29T11:02:52.917Z,31.20
2019-04-29T11:11:27.138Z,37.50
2019-04-29T11:19:43.865Z,29.17
2019-04-29T11:28:01.811Z,26.63
2019-04-29T11:36:22.178Z,31.83
2019-04-29T11:44:39.665Z,25.85
2019-04-29T11:52:57.268Z,31.90
2019-04-29T12:01:38.345Z,24.80
2019-04-29T12:09:47.612Z,23.53
2019-04-29T12:18:14.318Z,24.05
2019-04-29T12:26:35.500Z,24.30
2019-04-29T12:34:58.548Z,28.92
2019-04-29T12:43:34.055Z,25.70
2019-04-29T12:51:51.600Z,22.40
2019-04-29T13:00:11.609Z,23.00
2019-04-29T13:08:44.813Z,25.17
2019-04-29T13:17:14.691Z,25.10
2019-04-29T13:25:29.195Z,43.33
2019-04-29T13:33:50.859Z,21.33
2019-04-29T13:42:09.154Z,27.20
2019-04-29T13:50:39.855Z,19.87
2019-04-29T13:58:57.968Z,22.83
2019-04-29T14:07:18.307Z,28.77
2019-04-29T14:15:38.029Z,18.07
2019-04-29T14:23:53.373Z,20.47
2019-04-29T14:32:18.106Z,19.00
2019-04-29T14:40:33.799Z,27.70
2019-04-29T14:49:04.230Z,18.40
2019-04-29T14:57:19.049Z,19.77
2019-04-29T15:05:36.880Z,17.80
2019-04-29T15:13:59.555Z,17.50
2019-04-29T15:22:44.541Z,17.47
2019-04-29T15:31:32.538Z,17.13
2019-04-29T15:39:59.535Z,16.10
2019-04-29T15:48:17.100Z,14.37
2019-04-29T15:56:38.730Z,14.87
2019-04-29T16:04:59.746Z,14.00
2019-04-29T16:13:17.653Z,15.50
2019-04-29T16:21:39.206Z,24.30
2019-04-29T16:29:54.368Z,16.73
2019-04-29T16:38:21.560Z,13.43
2019-04-29T16:46:39.251Z,17.47
2019-04-29T16:54:59.093Z,13.27
2019-04-29T17:03:16.044Z,12.40
2019-04-29T17:11:35.565Z,10.90
2019-04-29T17:19:53.003Z,9.13
2019-04-29T17:28:25.680Z,17.73
2019-04-29T17:36:39.153Z,10.70
2019-04-29T17:44:56.952Z,10.00
2019-04-29T17:53:22.485Z,11.07
2019-04-29T18:01:58.166Z,8.03
2019-04-29T18:10:28.059Z,6.43
2019-04-29T18:18:57.371Z,11.17
2019-04-29T18:27:15.275Z,8.17
2019-04-29T18:35:32.921Z,8.10
2019-04-29T18:43:50.380Z,9.13
2019-04-29T18:52:07.919Z,5.87
2019-04-29T19:00:25.551Z,11.03
2019-04-29T19:08:44.863Z,5.70
2019-04-29T19:17:02.534Z,7.93
2019-04-29T19:25:20.034Z,14.13
2019-04-29T19:33:39.363Z,7.83
2019-04-29T19:41:56.739Z,7.93
2019-04-29T19:50:19.490Z,11.53
2019-04-29T19:58:36.397Z,8.07
2019-04-29T20:06:58.643Z,9.60
2019-04-29T20:15:16.036Z,8.27
2019-04-29T20:23:38.344Z,14.53
2019-04-29T20:31:53.926Z,10.43
2019-04-29T20:40:11.348Z,10.90
2019-04-29T20:48:31.361Z,6.23
2019-04-29T20:56:48.341Z,10.43
2019-04-29T21:05:08.258Z,8.20
2019-04-29T21:13:40.728Z,9.60
2019-04-29T21:21:58.201Z,13.07
2019-04-29T21:30:16.021Z,7.40
2019-04-29T21:38:55.838Z,9.60
2019-04-29T21:47:11.839Z,7.27
2019-04-29T21:55:29.551Z,7.77
2019-04-29T22:03:47.293Z,11.80
2019-04-29T22:12:05.560Z,10.23
2019-04-29T22:20:23.263Z,10.63
2019-04-29T22:28:40.866Z,15.00
2019-04-29T22:37:01.035Z,9.83
2019-04-29T22:45:17.634Z,9.37
2019-04-29T22:53:35.890Z,13.60
2019-04-29T23:01:55.566Z,7.70
2019-04-29T23:10:12.828Z,13.10
2019-04-29T23:18:38.501Z,10.23
2019-04-29T23:26:49.447Z,9.97
2019-04-29T23:35:09.638Z,10.73
2019-04-29T23:43:28.447Z,9.37
2019-04-29T23:51:46.442Z,10.68
